Time;durP1;ratioP1;P1;durP2;ratioP2;P2;SDS_P1;SDS_P2;PMS_P1;PMS_P2;Temp;Humidity;BMP_temperature;BMP_pressure;BME280_temperature;BME280_humidity;BME280_pressure;Samples;Min_cycle;Max_cycle;Signal;HPM_P1;HPM_P2
2021/07/16 00:02:05;;;;;;;5.97;4.45;;;15.50;99.90;;;;;;4948254;29;20038;-73
2021/07/16 00:04:31;;;;;;;5.85;4.55;;;15.50;99.90;;;;;;4955786;29;20031;-72
2021/07/16 00:06:58;;;;;;;7.28;5.30;;;15.50;99.90;;;;;;4956342;29;20042;-72
2021/07/16 00:09:24;;;;;;;7.30;5.18;;;15.50;99.90;;;;;;4954313;29;20027;-72
2021/07/16 00:11:50;;;;;;;6.38;4.75;;;15.50;99.90;;;;;;4955357;29;20038;-73
2021/07/16 00:14:17;;;;;;;8.32;5.13;;;15.40;99.90;;;;;;4970702;28;20039;-73
2021/07/16 00:16:43;;;;;;;6.78;5.40;;;15.30;99.90;;;;;;4954842;29;20074;-73
2021/07/16 00:19:09;;;;;;;7.32;5.57;;;15.30;99.90;;;;;;4970390;28;20031;-73
2021/07/16 00:21:36;;;;;;;9.88;5.53;;;15.40;99.90;;;;;;4951909;28;20355;-73
2021/07/16 00:24:02;;;;;;;6.45;5.25;;;15.30;99.90;;;;;;4942187;29;20027;-74
2021/07/16 00:26:29;;;;;;;7.03;5.38;;;15.20;99.90;;;;;;4955722;29;20050;-73
2021/07/16 00:28:56;;;;;;;6.40;5.22;;;15.20;99.90;;;;;;4956082;29;20051;-73
2021/07/16 00:31:23;;;;;;;6.85;5.88;;;15.20;99.90;;;;;;4955340;29;20028;-73
2021/07/16 00:33:51;;;;;;;13.75;6.60;;;15.30;99.90;;;;;;4937943;29;20468;-73
2021/07/16 00:36:18;;;;;;;7.22;5.45;;;15.40;99.90;;;;;;4956734;29;20035;-73
2021/07/16 00:38:44;;;;;;;11.98;5.72;;;15.30;99.90;;;;;;4974672;29;20031;-74
2021/07/16 00:41:11;;;;;;;7.22;6.53;;;15.20;99.90;;;;;;4965012;29;20034;-73
2021/07/16 00:43:37;;;;;;;6.65;5.80;;;15.20;99.90;;;;;;4948184;29;20034;-74
2021/07/16 00:46:04;;;;;;;8.18;6.18;;;15.20;99.90;;;;;;4947336;29;20040;-73
2021/07/16 00:48:30;;;;;;;7.05;6.35;;;15.20;99.90;;;;;;4938929;29;20046;-73
2021/07/16 00:50:56;;;;;;;8.10;7.30;;;15.10;99.90;;;;;;4955056;28;20047;-73
2021/07/16 00:53:22;;;;;;;9.10;7.45;;;15.20;99.90;;;;;;4955591;29;20030;-73
2021/07/16 00:55:49;;;;;;;8.75;7.10;;;15.20;99.90;;;;;;4953855;28;20043;-72
2021/07/16 00:58:17;;;;;;;9.93;6.07;;;15.30;99.90;;;;;;4953072;29;20035;-73
2021/07/16 01:00:44;;;;;;;10.40;6.47;;;15.20;99.90;;;;;;4954775;29;20027;-73
2021/07/16 01:03:10;;;;;;;10.05;6.28;;;15.20;99.90;;;;;;4953925;28;20039;-73
2021/07/16 01:05:37;;;;;;;6.38;5.50;;;15.20;99.90;;;;;;4955198;28;20044;-72
2021/07/16 01:08:07;;;;;;;8.73;6.30;;;15.10;99.90;;;;;;4954730;29;20031;-72
2021/07/16 01:10:33;;;;;;;8.25;6.93;;;15.00;99.90;;;;;;4954984;28;20051;-72
2021/07/16 01:13:00;;;;;;;8.13;6.57;;;15.00;99.90;;;;;;4943250;29;20028;-72
2021/07/16 01:15:32;;;;;;;7.97;7.18;;;15.00;99.90;;;;;;4948694;29;20027;-73
2021/07/16 01:17:59;;;;;;;8.40;6.47;;;15.00;99.90;;;;;;4939552;29;20407;-72
2021/07/16 01:20:28;;;;;;;10.18;6.90;;;15.00;99.90;;;;;;4954677;29;20100;-72
2021/07/16 01:22:56;;;;;;;9.88;6.95;;;15.10;99.90;;;;;;4955384;29;20024;-72
2021/07/16 01:25:24;;;;;;;9.45;7.00;;;15.20;99.90;;;;;;4954629;29;20086;-73
2021/07/16 01:27:57;;;;;;;8.13;6.75;;;15.20;99.90;;;;;;4942258;29;20043;-73
2021/07/16 01:30:28;;;;;;;8.93;6.82;;;15.20;99.90;;;;;;4948923;29;20038;-73
2021/07/16 01:32:55;;;;;;;8.63;7.57;;;15.20;99.90;;;;;;4952650;29;20039;-73
2021/07/16 01:35:22;;;;;;;9.70;7.07;;;15.20;99.90;;;;;;4954552;29;20043;-73
2021/07/16 01:37:49;;;;;;;8.27;7.45;;;15.10;99.90;;;;;;4950511;28;20043;-73
2021/07/16 01:40:17;;;;;;;8.55;6.88;;;15.10;99.90;;;;;;4955578;29;20038;-73
2021/07/16 01:42:49;;;;;;;9.73;7.13;;;15.10;99.90;;;;;;4954126;29;20038;-73
2021/07/16 01:45:19;;;;;;;10.13;7.75;;;15.10;99.90;;;;;;4954404;29;20473;-73
2021/07/16 01:47:55;;;;;;;8.50;7.10;;;15.30;99.90;;;;;;4954053;28;20047;-73
2021/07/16 01:50:23;;;;;;;7.90;6.50;;;15.30;99.90;;;;;;4954386;28;20039;-73
2021/07/16 01:52:50;;;;;;;7.45;6.43;;;15.20;99.90;;;;;;4952834;28;20050;-73
2021/07/16 01:55:17;;;;;;;7.20;6.50;;;15.20;99.90;;;;;;4954362;28;20046;-73
2021/07/16 01:57:57;;;;;;;7.30;6.60;;;15.10;99.90;;;;;;4953846;29;20037;-73
2021/07/16 02:00:31;;;;;;;9.65;7.63;;;15.00;99.90;;;;;;4954339;29;20038;-73
2021/07/16 02:03:01;;;;;;;9.00;6.28;;;15.10;99.90;;;;;;4952965;29;20023;-73
2021/07/16 02:05:28;;;;;;;8.18;6.57;;;15.10;99.90;;;;;;4953603;29;20038;-73
2021/07/16 02:08:01;;;;;;;8.60;7.70;;;15.10;99.90;;;;;;4953817;28;20042;-73
2021/07/16 02:10:28;;;;;;;8.75;7.80;;;15.10;99.90;;;;;;4953568;29;20392;-73
2021/07/16 02:12:54;;;;;;;9.85;8.43;;;15.10;99.90;;;;;;4954051;29;20046;-73
2021/07/16 02:15:25;;;;;;;11.85;8.82;;;15.10;99.90;;;;;;4953997;29;20038;-73
2021/07/16 02:17:52;;;;;;;10.32;9.25;;;15.10;99.90;;;;;;4954070;29;20031;-73
2021/07/16 02:20:32;;;;;;;12.45;8.90;;;15.10;99.90;;;;;;4953507;29;20035;-73
2021/07/16 02:23:00;;;;;;;;;;;15.10;99.90;;;;;;4953751;28;20043;-73
2021/07/16 02:25:27;;;;;;;10.70;7.25;;;15.00;99.90;;;;;;4952158;29;19911;-73
2021/07/16 02:27:57;;;;;;;8.85;7.82;;;15.00;99.90;;;;;;4953520;28;20050;-73
2021/07/16 02:30:26;;;;;;;9.82;8.82;;;15.00;99.90;;;;;;4953022;28;20051;-73
2021/07/16 02:32:54;;;;;;;10.38;9.27;;;15.00;99.90;;;;;;4953827;29;20019;-72
2021/07/16 02:35:20;;;;;;;9.10;8.02;;;15.00;99.90;;;;;;4953728;29;20031;-72
2021/07/16 02:37:47;;;;;;;10.35;8.93;;;15.00;99.90;;;;;;4953408;28;20063;-73
2021/07/16 02:40:15;;;;;;;10.05;8.93;;;15.00;99.90;;;;;;4953738;29;20031;-72
2021/07/16 02:42:43;;;;;;;8.85;7.95;;;15.00;99.90;;;;;;4948711;29;20039;-72
2021/07/16 02:45:13;;;;;;;9.30;7.25;;;15.00;99.90;;;;;;4948291;29;20450;-73
2021/07/16 02:47:40;;;;;;;11.07;7.50;;;14.80;99.90;;;;;;4942304;28;20052;-72
2021/07/16 02:50:14;;;;;;;9.27;6.30;;;14.70;99.90;;;;;;4943008;29;20023;-73
2021/07/16 02:52:42;;;;;;;7.97;7.07;;;14.60;99.90;;;;;;4953566;29;20027;-73
2021/07/16 02:55:09;;;;;;;10.88;6.68;;;14.50;99.90;;;;;;4951460;29;20027;-73
2021/07/16 02:57:35;;;;;;;8.98;6.93;;;14.60;99.90;;;;;;4953050;28;20047;-73
2021/07/16 03:00:13;;;;;;;11.25;7.45;;;14.60;99.90;;;;;;4953700;29;20027;-73
2021/07/16 03:02:41;;;;;;;10.63;7.38;;;14.50;99.90;;;;;;4944429;28;20035;-72
2021/07/16 03:05:09;;;;;;;7.43;6.68;;;14.40;99.90;;;;;;4950848;28;20043;-73
2021/07/16 03:07:36;;;;;;;10.30;7.88;;;14.40;99.90;;;;;;4952123;29;20039;-73
2021/07/16 03:10:05;;;;;;;8.60;7.05;;;14.40;99.90;;;;;;4953404;29;20030;-73
2021/07/16 03:12:32;;;;;;;8.77;6.90;;;14.40;99.90;;;;;;4953154;29;20031;-73
2021/07/16 03:14:58;;;;;;;8.52;6.65;;;14.30;99.90;;;;;;4953522;29;20024;-73
2021/07/16 03:17:24;;;;;;;9.65;6.47;;;14.30;99.90;;;;;;4953375;29;20042;-72
2021/07/16 03:19:50;;;;;;;10.23;7.20;;;14.20;99.90;;;;;;4946824;28;20473;-72
2021/07/16 03:22:16;;;;;;;11.10;6.93;;;14.20;99.90;;;;;;4950355;29;20031;-73
2021/07/16 03:24:43;;;;;;;8.77;6.70;;;14.10;99.90;;;;;;4956018;28;20054;-73
2021/07/16 03:27:09;;;;;;;10.18;7.40;;;14.10;99.90;;;;;;4956610;29;20050;-73
2021/07/16 03:29:35;;;;;;;9.85;7.07;;;14.10;99.90;;;;;;4971868;28;20039;-73
2021/07/16 03:32:01;;;;;;;11.65;8.50;;;14.00;99.90;;;;;;4957502;29;20338;-73
2021/07/16 03:34:27;;;;;;;10.07;7.95;;;14.00;99.90;;;;;;4957208;29;20031;-73
2021/07/16 03:36:54;;;;;;;9.23;7.75;;;14.00;99.90;;;;;;4956560;29;20449;-73
2021/07/16 03:39:20;;;;;;;8.60;7.68;;;14.00;99.90;;;;;;4956383;29;20362;-73
2021/07/16 03:41:46;;;;;;;9.40;8.15;;;14.00;99.90;;;;;;4956902;28;20043;-73
2021/07/16 03:44:12;;;;;;;8.25;7.35;;;13.90;99.90;;;;;;4957323;28;20031;-73
2021/07/16 03:46:38;;;;;;;11.82;7.15;;;13.90;99.90;;;;;;4970036;28;20058;-73
2021/07/16 03:49:06;;;;;;;10.18;7.30;;;13.90;99.90;;;;;;4957226;28;20046;-73
2021/07/16 03:51:32;;;;;;;9.77;8.27;;;13.90;99.90;;;;;;4956229;29;20027;-74
2021/07/16 03:53:59;;;;;;;8.70;7.47;;;13.90;99.90;;;;;;4955877;29;20092;-74
2021/07/16 03:56:25;;;;;;;10.93;8.82;;;14.00;99.90;;;;;;4955891;28;20473;-74
2021/07/16 03:58:51;;;;;;;11.60;8.43;;;14.10;99.90;;;;;;4956195;29;20035;-74
2021/07/16 04:01:17;;;;;;;14.82;7.78;;;14.10;99.90;;;;;;4955384;29;20051;-74
2021/07/16 04:03:43;;;;;;;13.55;8.45;;;14.10;99.90;;;;;;4956763;29;20032;-74
2021/07/16 04:06:10;;;;;;;7.30;6.55;;;14.10;99.90;;;;;;4955182;29;20031;-74
2021/07/16 04:08:37;;;;;;;8.35;6.63;;;14.10;99.90;;;;;;4955340;29;20050;-72
2021/07/16 04:11:04;;;;;;;9.07;6.97;;;14.00;99.90;;;;;;4957049;29;20039;-73
2021/07/16 04:13:31;;;;;;;8.02;6.80;;;14.00;99.90;;;;;;4955137;29;20034;-73
2021/07/16 04:15:57;;;;;;;9.60;6.97;;;14.10;99.90;;;;;;4956259;29;20023;-73
2021/07/16 04:18:24;;;;;;;12.45;6.93;;;14.10;99.90;;;;;;4955567;29;20031;-73
2021/07/16 04:20:50;;;;;;;8.13;6.82;;;14.10;99.90;;;;;;4955184;29;20034;-74
2021/07/16 04:23:16;;;;;;;9.60;7.03;;;14.10;99.90;;;;;;4947861;28;20047;-74
2021/07/16 04:25:42;;;;;;;9.07;6.20;;;14.20;99.90;;;;;;4955128;29;20038;-74
2021/07/16 04:28:08;;;;;;;7.57;5.90;;;14.30;99.90;;;;;;4955581;29;20039;-74
2021/07/16 04:30:35;;;;;;;8.75;5.95;;;14.40;99.90;;;;;;4953192;28;20035;-74
2021/07/16 04:33:03;;;;;;;9.60;4.88;;;14.50;99.90;;;;;;4955653;29;20036;-72
2021/07/16 04:35:30;;;;;;;8.32;4.00;;;14.60;99.90;;;;;;4955127;29;20495;-72
2021/07/16 04:37:56;;;;;;;7.70;4.07;;;14.90;99.90;;;;;;4956618;29;20042;-73
2021/07/16 04:40:24;;;;;;;4.30;3.10;;;15.40;99.90;;;;;;4957389;29;20031;-73
2021/07/16 04:42:52;;;;;;;4.88;3.25;;;16.00;99.90;;;;;;4955257;29;20019;-73
2021/07/16 04:45:19;;;;;;;8.05;3.15;;;16.70;99.90;;;;;;4955023;29;20039;-73
2021/07/16 04:47:46;;;;;;;3.55;2.78;;;17.10;99.90;;;;;;4955386;29;20350;-72
2021/07/16 04:50:13;;;;;;;5.18;2.92;;;17.70;99.90;;;;;;4954232;29;20365;-72
2021/07/16 04:52:44;;;;;;;7.65;2.65;;;18.40;99.90;;;;;;4965808;28;20054;-73
2021/07/16 04:55:11;;;;;;;4.25;2.67;;;18.60;99.90;;;;;;4943085;28;20483;-73
2021/07/16 04:57:37;;;;;;;5.15;2.72;;;18.70;99.90;;;;;;4952382;29;20059;-73
2021/07/16 05:00:06;;;;;;;6.07;2.60;;;18.80;99.90;;;;;;4935841;28;20044;-73
2021/07/16 05:02:32;;;;;;;5.40;2.75;;;19.60;99.90;;;;;;4947328;29;20043;-73
2021/07/16 05:04:59;;;;;;;6.20;2.95;;;20.40;99.90;;;;;;4939368;29;20040;-73
2021/07/16 05:07:25;;;;;;;3.80;2.78;;;20.80;99.90;;;;;;4945987;28;20055;-73
2021/07/16 05:09:51;;;;;;;5.30;2.83;;;20.10;99.90;;;;;;4975576;29;20237;-73
2021/07/16 05:12:17;;;;;;;4.13;3.72;;;19.70;99.90;;;;;;4978262;29;20026;-74
2021/07/16 05:14:43;;;;;;;4.93;3.75;;;19.70;99.90;;;;;;4962044;28;20401;-74
2021/07/16 05:17:10;;;;;;;6.75;4.85;;;19.80;99.90;;;;;;4954976;29;20035;-74
2021/07/16 05:19:36;;;;;;;6.90;4.10;;;19.60;99.90;;;;;;4954241;29;20034;-73
2021/07/16 05:22:02;;;;;;;6.40;4.63;;;19.30;99.90;;;;;;4953452;29;20032;-73
2021/07/16 05:24:30;;;;;;;5.50;4.20;;;19.40;99.90;;;;;;4954101;29;20043;-72
2021/07/16 05:26:57;;;;;;;4.72;4.20;;;19.60;99.90;;;;;;4954469;29;20157;-73
2021/07/16 05:29:24;;;;;;;8.25;5.43;;;19.50;99.90;;;;;;4969046;28;20422;-72
2021/07/16 05:31:50;;;;;;;7.60;4.97;;;19.60;99.90;;;;;;4953954;29;20035;-73
2021/07/16 05:34:16;;;;;;;8.63;5.57;;;20.10;99.90;;;;;;4955561;29;20031;-72
2021/07/16 05:36:43;;;;;;;5.97;5.35;;;20.30;99.90;;;;;;4953770;29;20046;-73
2021/07/16 05:39:09;;;;;;;7.65;5.97;;;20.90;99.90;;;;;;4954731;29;20039;-72
2021/07/16 05:41:35;;;;;;;6.85;5.88;;;20.60;99.90;;;;;;4960136;28;20031;-73
2021/07/16 05:44:02;;;;;;;5.60;4.95;;;20.70;99.90;;;;;;4960708;28;20031;-73
2021/07/16 05:46:30;;;;;;;8.38;5.85;;;21.80;99.90;;;;;;4953766;29;20035;-72
2021/07/16 05:48:57;;;;;;;8.52;5.53;;;21.70;99.90;;;;;;4952937;29;20044;-73
2021/07/16 05:51:23;;;;;;;7.72;5.97;;;21.70;99.90;;;;;;4955223;29;20038;-73
2021/07/16 05:53:49;;;;;;;7.75;5.95;;;21.10;99.90;;;;;;4953656;29;20393;-74
2021/07/16 05:56:16;;;;;;;7.90;6.55;;;20.80;99.90;;;;;;4953936;29;20055;-73
2021/07/16 05:58:42;;;;;;;7.25;6.57;;;20.70;99.90;;;;;;4953717;29;20465;-74
2021/07/16 06:01:08;;;;;;;11.98;7.03;;;20.50;99.90;;;;;;4952978;29;20046;-74
2021/07/16 06:03:34;;;;;;;8.10;7.20;;;20.20;99.90;;;;;;4953564;29;20453;-74
2021/07/16 06:06:00;;;;;;;9.88;6.57;;;20.60;99.90;;;;;;4945663;29;20042;-73
2021/07/16 06:08:27;;;;;;;13.98;6.53;;;20.80;99.90;;;;;;4953983;28;20047;-74
2021/07/16 06:10:53;;;;;;;9.25;7.82;;;21.80;99.90;;;;;;4954284;28;20028;-75
2021/07/16 06:13:19;;;;;;;10.43;7.40;;;22.70;99.90;;;;;;4953578;28;20031;-74
2021/07/16 06:15:45;;;;;;;12.00;8.13;;;22.10;99.90;;;;;;4952775;28;20465;-71
2021/07/16 06:18:11;;;;;;;8.20;6.40;;;21.80;99.90;;;;;;4953264;28;20477;-73
2021/07/16 06:20:39;;;;;;;10.20;6.80;;;21.70;99.90;;;;;;4953035;28;20038;-73
2021/07/16 06:23:05;;;;;;;6.70;5.60;;;21.70;99.90;;;;;;4938668;29;20036;-73
2021/07/16 06:25:32;;;;;;;7.45;5.65;;;21.60;99.90;;;;;;4949179;29;20043;-72
2021/07/16 06:27:58;;;;;;;8.63;5.63;;;20.90;99.90;;;;;;4951910;29;20473;-73
2021/07/16 06:30:24;;;;;;;5.03;4.22;;;21.00;99.90;;;;;;4953122;28;20039;-72
2021/07/16 06:32:50;;;;;;;8.20;4.60;;;20.40;99.90;;;;;;4963214;28;20042;-72
2021/07/16 06:35:17;;;;;;;7.07;3.85;;;20.60;99.90;;;;;;4954342;28;20058;-72
2021/07/16 06:37:43;;;;;;;6.47;4.15;;;20.50;99.90;;;;;;4952927;29;20057;-72
2021/07/16 06:40:10;;;;;;;7.32;4.25;;;20.30;99.90;;;;;;4953514;29;20042;-72
2021/07/16 06:42:36;;;;;;;6.53;3.63;;;20.20;99.90;;;;;;4953045;29;20047;-72
2021/07/16 06:45:05;;;;;;;6.38;3.10;;;20.40;99.90;;;;;;4953573;29;20035;-72
2021/07/16 06:47:31;;;;;;;4.88;3.58;;;20.70;99.90;;;;;;4953325;29;20055;-73
2021/07/16 06:49:57;;;;;;;4.15;2.85;;;22.00;99.90;;;;;;4952189;28;20050;-74
2021/07/16 06:52:23;;;;;;;3.75;2.90;;;22.60;99.90;;;;;;4941871;28;20034;-75
2021/07/16 06:54:50;;;;;;;3.28;2.45;;;22.50;99.40;;;;;;4944216;28;20513;-74
2021/07/16 06:57:16;;;;;;;2.42;1.95;;;22.70;98.70;;;;;;4935090;29;20062;-73
2021/07/16 06:59:42;;;;;;;3.50;1.80;;;23.70;97.00;;;;;;4949531;29;20039;-73
2021/07/16 07:02:08;;;;;;;2.25;1.70;;;23.70;95.90;;;;;;4952866;28;20043;-73
2021/07/16 07:04:35;;;;;;;3.28;2.40;;;23.80;95.80;;;;;;4952882;29;20035;-75
2021/07/16 07:07:01;;;;;;;7.30;3.00;;;22.30;97.90;;;;;;4953283;29;20027;-73
2021/07/16 07:09:28;;;;;;;7.68;2.78;;;21.90;99.40;;;;;;4953039;29;20047;-74
2021/07/16 07:11:54;;;;;;;3.00;2.25;;;21.70;99.90;;;;;;4940560;29;20031;-74
2021/07/16 07:14:20;;;;;;;5.03;2.30;;;22.40;99.10;;;;;;4945279;29;20489;-75
2021/07/16 07:16:46;;;;;;;3.70;1.90;;;22.90;98.20;;;;;;4934708;29;20031;-74
2021/07/16 07:19:13;;;;;;;3.65;2.40;;;23.60;96.30;;;;;;4947654;29;20477;-74
2021/07/16 07:21:39;;;;;;;3.25;2.45;;;23.40;96.30;;;;;;4952771;29;20031;-74
2021/07/16 07:24:05;;;;;;;4.38;2.67;;;23.90;94.90;;;;;;4936418;29;20028;-74
2021/07/16 07:26:32;;;;;;;4.82;3.13;;;24.30;94.70;;;;;;4951894;29;20511;-74
2021/07/16 07:28:59;;;;;;;4.40;3.20;;;25.30;93.30;;;;;;4935862;29;20035;-73
2021/07/16 07:31:25;;;;;;;5.55;3.55;;;24.60;93.50;;;;;;4938606;29;20489;-74
2021/07/16 07:33:52;;;;;;;4.88;3.60;;;22.90;96.10;;;;;;4949034;28;20430;-73
2021/07/16 07:36:18;;;;;;;4.15;3.38;;;22.70;97.10;;;;;;4941973;29;20047;-76
2021/07/16 07:38:44;;;;;;;5.55;3.90;;;23.40;96.60;;;;;;4952557;29;20391;-74
2021/07/16 07:41:11;;;;;;;5.97;4.18;;;24.20;95.10;;;;;;4953101;28;20432;-76
2021/07/16 07:43:37;;;;;;;6.47;3.95;;;24.70;94.10;;;;;;4945760;29;20394;-75
2021/07/16 07:46:03;;;;;;;6.88;5.10;;;24.50;94.40;;;;;;4960888;28;20036;-73
2021/07/16 07:48:29;;;;;;;5.00;3.72;;;23.90;94.20;;;;;;4952820;29;20530;-73
2021/07/16 07:50:57;;;;;;;3.88;3.38;;;23.20;95.30;;;;;;4952556;29;20039;-73
2021/07/16 07:53:23;;;;;;;3.83;3.15;;;23.40;96.00;;;;;;4938278;29;20062;-73
2021/07/16 07:55:49;;;;;;;4.75;3.08;;;24.20;94.30;;;;;;4943784;29;20055;-74
2021/07/16 07:58:15;;;;;;;4.82;3.38;;;24.80;93.20;;;;;;4942647;29;20050;-74
2021/07/16 08:00:42;;;;;;;5.82;3.85;;;25.20;92.30;;;;;;4952157;28;20047;-74
2021/07/16 08:03:10;;;;;;;3.88;3.03;;;24.10;92.90;;;;;;4938136;29;20036;-74
2021/07/16 08:05:36;;;;;;;5.00;3.72;;;23.90;94.30;;;;;;4954875;28;20054;-75
2021/07/16 08:08:02;;;;;;;4.85;3.72;;;23.90;94.20;;;;;;4955907;28;20052;-73
2021/07/16 08:10:29;;;;;;;6.72;3.97;;;22.80;95.90;;;;;;4956341;28;20477;-73
2021/07/16 08:12:55;;;;;;;4.20;3.63;;;22.00;97.30;;;;;;4948325;29;20247;-73
2021/07/16 08:15:22;;;;;;;7.07;4.20;;;21.60;98.90;;;;;;4945617;29;20044;-73
2021/07/16 08:17:48;;;;;;;5.07;4.38;;;21.40;99.10;;;;;;4954296;28;20054;-73
2021/07/16 08:20:14;;;;;;;7.65;5.50;;;21.50;99.70;;;;;;4954546;28;20489;-73
2021/07/16 08:22:42;;;;;;;9.02;6.45;;;21.20;99.90;;;;;;4955561;29;20479;-74
2021/07/16 08:25:10;;;;;;;7.53;5.72;;;21.00;99.90;;;;;;4956163;29;20039;-74
2021/07/16 08:27:36;;;;;;;9.48;4.65;;;21.00;99.90;;;;;;4955140;29;20042;-74
2021/07/16 08:30:04;;;;;;;8.88;6.32;;;21.70;99.90;;;;;;4956842;29;20043;-73
2021/07/16 08:32:30;;;;;;;8.55;5.03;;;21.90;99.90;;;;;;4957009;29;20035;-73
2021/07/16 08:34:56;;;;;;;6.43;5.07;;;22.20;99.40;;;;;;4954620;29;20500;-73
2021/07/16 08:37:22;;;;;;;7.35;5.10;;;22.20;99.00;;;;;;4938407;29;20031;-73
2021/07/16 08:39:48;;;;;;;8.13;5.00;;;22.20;99.00;;;;;;4952553;29;20053;-71
2021/07/16 08:42:15;;;;;;;5.72;4.53;;;22.70;98.10;;;;;;4957155;28;20041;-73
2021/07/16 08:44:45;;;;;;;7.38;5.10;;;22.50;98.40;;;;;;4958423;28;20453;-74
2021/07/16 08:47:11;;;;;;;6.63;5.40;;;22.70;98.40;;;;;;4966490;28;20034;-74
2021/07/16 08:49:41;;;;;;;8.48;5.38;;;22.50;98.10;;;;;;4958363;28;20386;-74
2021/07/16 08:52:08;;;;;;;5.77;5.00;;;22.00;98.90;;;;;;4952271;28;20480;-74
2021/07/16 08:54:42;;;;;;;7.20;5.15;;;22.20;99.40;;;;;;4945301;29;20035;-73
2021/07/16 08:57:09;;;;;;;6.35;4.72;;;22.60;98.10;;;;;;4947625;28;20059;-73
2021/07/16 08:59:35;;;;;;;7.53;4.13;;;22.70;97.30;;;;;;4943395;28;20035;-74
2021/07/16 09:02:02;;;;;;;7.03;4.00;;;24.00;96.10;;;;;;4955572;28;20055;-74
2021/07/16 09:04:35;;;;;;;4.63;4.03;;;24.60;94.10;;;;;;4954837;28;20062;-74
2021/07/16 09:07:01;;;;;;;7.45;5.13;;;24.20;93.90;;;;;;4954497;29;20116;-72
2021/07/16 09:09:36;;;;;;;5.15;4.43;;;23.50;95.00;;;;;;4955057;29;20253;-72
2021/07/16 09:12:12;;;;;;;6.97;4.63;;;22.90;96.40;;;;;;4956083;28;20051;-73
2021/07/16 09:14:39;;;;;;;5.18;4.68;;;22.60;96.90;;;;;;4963760;28;20039;-73
2021/07/16 09:17:14;;;;;;;7.63;5.72;;;22.50;97.50;;;;;;4954861;28;20031;-73
2021/07/16 09:19:42;;;;;;;13.77;6.13;;;22.60;97.50;;;;;;4962812;28;20046;-73
2021/07/16 09:22:20;;;;;;;10.02;6.18;;;22.40;98.10;;;;;;4953705;29;20038;-72
2021/07/16 09:24:51;;;;;;;7.68;6.45;;;22.20;98.00;;;;;;4953974;28;20043;-73
2021/07/16 09:27:34;;;;;;;9.40;6.45;;;21.80;99.10;;;;;;4956793;28;20039;-72
2021/07/16 09:30:24;;;;;;;8.52;6.95;;;21.80;99.90;;;;;;4962861;28;20058;-75
2021/07/16 09:32:50;;;;;;;10.32;7.60;;;22.30;99.10;;;;;;4955093;28;20027;-73
2021/07/16 09:35:24;;;;;;;10.90;6.90;;;22.20;99.40;;;;;;4959790;28;20035;-73
2021/07/16 09:37:56;;;;;;;10.35;6.50;;;22.70;98.90;;;;;;4955034;29;20054;-73
2021/07/16 09:40:29;;;;;;;8.65;6.15;;;23.50;97.20;;;;;;4962945;28;20043;-74
2021/07/16 09:43:05;;;;;;;9.15;5.35;;;23.20;97.30;;;;;;4958879;29;20030;-74
2021/07/16 09:45:33;;;;;;;8.15;5.70;;;23.70;95.70;;;;;;4965537;28;21990;-74
2021/07/16 09:48:26;;;;;;;8.32;5.30;;;24.10;96.00;;;;;;4954145;29;20035;-75
2021/07/16 09:51:25;;;;;;;7.80;6.05;;;24.80;94.50;;;;;;4958098;29;20046;-74
2021/07/16 09:53:53;;;;;;;6.75;5.10;;;24.50;94.00;;;;;;4955166;29;20031;-75
2021/07/16 09:56:21;;;;;;;5.38;4.88;;;24.50;93.80;;;;;;4944814;29;20048;-72
2021/07/16 09:58:58;;;;;;;6.32;5.05;;;24.70;93.30;;;;;;4951541;29;20039;-73
2021/07/16 10:01:28;;;;;;;7.00;4.72;;;24.80;93.30;;;;;;4953606;29;20054;-73
2021/07/16 10:03:59;;;;;;;9.88;6.15;;;24.60;93.60;;;;;;4934706;29;20493;-73
2021/07/16 10:06:28;;;;;;;8.18;5.45;;;24.10;93.80;;;;;;4936545;29;20031;-74
2021/07/16 10:08:56;;;;;;;8.07;4.55;;;24.60;93.00;;;;;;4953203;29;20063;-75
2021/07/16 10:11:27;;;;;;;5.40;4.30;;;25.10;92.00;;;;;;4943117;29;20044;-73
2021/07/16 10:13:56;;;;;;;5.22;4.63;;;25.30;90.90;;;;;;4953650;28;20047;-74
2021/07/16 10:16:23;;;;;;;4.37;3.83;;;25.40;90.10;;;;;;4952649;29;20043;-73
2021/07/16 10:18:52;;;;;;;6.53;4.28;;;24.70;91.30;;;;;;4953331;29;20298;-73
2021/07/16 10:21:20;;;;;;;6.37;4.53;;;24.70;91.60;;;;;;4953852;29;20039;-73
2021/07/16 10:23:49;;;;;;;6.50;4.53;;;24.80;90.50;;;;;;4936022;29;20504;-73
2021/07/16 10:26:16;;;;;;;6.78;4.65;;;24.10;91.10;;;;;;4953564;29;20042;-75
2021/07/16 10:28:43;;;;;;;5.57;4.50;;;23.70;91.40;;;;;;4952530;28;20051;-73
2021/07/16 10:31:34;;;;;;;7.72;5.20;;;23.80;91.00;;;;;;4948810;29;20382;-72
2021/07/16 10:34:30;;;;;;;8.70;4.35;;;24.30;90.00;;;;;;4942592;29;20035;-73
2021/07/16 10:37:06;;;;;;;5.43;4.90;;;24.40;89.50;;;;;;4952594;29;20477;-72
2021/07/16 10:39:50;;;;;;;5.65;5.05;;;24.70;88.70;;;;;;4953868;28;20062;-74
2021/07/16 10:42:25;;;;;;;5.35;4.53;;;25.30;89.00;;;;;;4952488;29;20384;-74
2021/07/16 10:44:53;;;;;;;6.03;4.57;;;25.10;89.50;;;;;;4953096;28;20047;-75
2021/07/16 10:47:51;;;;;;;4.70;4.18;;;24.70;88.70;;;;;;4938415;29;20062;-76
2021/07/16 10:50:26;;;;;;;6.00;4.65;;;24.80;88.60;;;;;;4967433;28;20047;-74
2021/07/16 10:52:52;;;;;;;6.50;4.82;;;25.00;87.00;;;;;;4958321;28;20034;-74
2021/07/16 10:55:40;;;;;;;8.20;4.15;;;25.10;86.10;;;;;;4951780;28;20470;-75
2021/07/16 10:58:21;;;;;;;6.60;4.00;;;24.90;86.60;;;;;;4951745;28;20047;-72
2021/07/16 11:00:57;;;;;;;4.60;3.92;;;25.00;86.00;;;;;;4952301;29;20054;-75
2021/07/16 11:03:40;;;;;;;6.07;4.57;;;25.00;85.70;;;;;;4943742;29;20039;-75
2021/07/16 11:06:08;;;;;;;7.07;3.88;;;25.00;87.60;;;;;;4945530;29;20035;-73
2021/07/16 11:08:35;;;;;;;6.68;4.68;;;24.90;85.70;;;;;;4953388;28;20051;-74
2021/07/16 11:11:04;;;;;;;7.85;4.38;;;25.00;84.00;;;;;;4951758;29;20034;-75
2021/07/16 11:13:36;;;;;;;7.55;5.35;;;25.30;86.30;;;;;;4953097;29;20031;-73
2021/07/16 11:16:29;;;;;;;5.40;4.90;;;25.30;86.30;;;;;;4951631;29;20031;-74
2021/07/16 11:19:09;;;;;;;6.13;4.68;;;25.60;86.10;;;;;;4943949;29;20039;-74
2021/07/16 11:21:47;;;;;;;5.40;4.82;;;25.40;86.20;;;;;;4952176;28;20494;-72
2021/07/16 11:26:53;;;;;;;6.28;5.68;;;25.10;86.50;;;;;;4950792;28;20051;-74
2021/07/16 11:29:23;;;;;;;7.90;5.53;;;24.90;87.50;;;;;;4951015;29;20051;-73
2021/07/16 11:32:19;;;;;;;5.57;4.70;;;24.90;87.60;;;;;;4951535;29;20031;-74
2021/07/16 11:35:07;;;;;;;4.93;4.20;;;25.20;86.80;;;;;;4967727;28;20043;-73
2021/07/16 11:37:40;;;;;;;6.15;4.25;;;25.50;84.50;;;;;;4954044;29;20035;-73
2021/07/16 11:40:08;;;;;;;4.88;4.38;;;25.80;82.70;;;;;;4956405;28;20035;-74
2021/07/16 11:42:40;;;;;;;6.18;4.95;;;25.90;81.70;;;;;;4956026;29;20038;-75
2021/07/16 11:45:10;;;;;;;5.38;4.88;;;25.50;82.70;;;;;;4956993;29;20462;-79
2021/07/16 11:47:38;;;;;;;6.38;5.35;;;25.30;85.50;;;;;;4956300;29;20380;-76
2021/07/16 11:50:08;;;;;;;7.72;5.32;;;25.10;86.60;;;;;;4955611;28;20405;-77
2021/07/16 11:52:36;;;;;;;6.38;5.03;;;24.80;87.10;;;;;;4956916;29;20042;-77
2021/07/16 11:55:11;;;;;;;5.03;4.53;;;25.20;85.30;;;;;;4956458;29;20031;-76
2021/07/16 11:57:47;;;;;;;4.40;4.00;;;25.50;82.70;;;;;;4944921;29;20424;-77
2021/07/16 12:00:15;;;;;;;5.88;4.85;;;25.60;81.90;;;;;;4956516;29;20043;-78
2021/07/16 12:02:41;;;;;;;5.65;4.80;;;25.20;83.00;;;;;;4970421;28;20039;-76
2021/07/16 12:05:08;;;;;;;5.53;4.80;;;25.00;83.70;;;;;;4943502;28;20139;-76
2021/07/16 12:07:36;;;;;;;5.50;5.00;;;25.00;85.10;;;;;;4952029;29;20027;-76
2021/07/16 12:10:17;;;;;;;4.78;4.28;;;24.80;85.70;;;;;;4957008;29;20118;-77
2021/07/16 12:12:47;;;;;;;6.88;5.25;;;25.20;85.40;;;;;;4937651;29;20043;-76
2021/07/16 12:15:17;;;;;;;5.90;4.97;;;25.60;81.90;;;;;;4950470;29;20038;-76
2021/07/16 12:17:52;;;;;;;5.65;5.03;;;25.60;81.60;;;;;;4955772;29;20034;-75
2021/07/16 12:20:21;;;;;;;4.75;4.28;;;25.80;83.20;;;;;;4949201;29;20042;-76
2021/07/16 12:22:48;;;;;;;5.45;4.28;;;25.80;82.60;;;;;;4944293;28;20039;-77
2021/07/16 12:25:16;;;;;;;9.52;4.35;;;26.10;79.80;;;;;;4955127;29;20031;-77
2021/07/16 12:27:42;;;;;;;7.75;5.28;;;26.50;78.20;;;;;;4943600;29;20027;-80
2021/07/16 12:30:10;;;;;;;7.72;5.97;;;26.10;83.70;;;;;;4955309;28;20055;-77
2021/07/16 12:32:46;;;;;;;8.00;5.95;;;25.60;86.60;;;;;;4954896;29;20055;-77
2021/07/16 12:35:26;;;;;;;11.20;7.15;;;25.10;86.70;;;;;;4944225;29;20601;-77
2021/07/16 12:37:59;;;;;;;9.93;7.25;;;25.30;86.50;;;;;;4955947;29;20496;-77
2021/07/16 12:40:26;;;;;;;6.70;6.10;;;25.70;84.80;;;;;;4955633;28;20047;-79
2021/07/16 12:43:12;;;;;;;8.45;6.82;;;25.90;85.40;;;;;;4937529;29;20035;-77
2021/07/16 12:45:53;;;;;;;12.75;6.85;;;25.70;87.50;;;;;;4940703;29;20488;-78
2021/07/16 12:48:30;;;;;;;9.52;7.35;;;24.90;89.00;;;;;;4955766;29;20496;-77
2021/07/16 12:51:14;;;;;;;8.45;7.57;;;24.10;90.60;;;;;;4954190;28;20035;-78
2021/07/16 12:53:54;;;;;;;13.23;9.52;;;24.10;91.00;;;;;;4943408;29;20062;-77
2021/07/16 12:56:23;;;;;;;7.45;6.53;;;24.30;91.10;;;;;;4945636;29;20063;-76
2021/07/16 12:58:56;;;;;;;8.18;7.05;;;24.20;90.90;;;;;;4954704;28;20043;-76